sensor_id;sensor_type;location;lat;lon;timestamp;P1;durP1;ratioP1;P2;durP2;ratioP2
5042;SDS011;2540;50.928;6.856;2023-07-02T00:00:02;7.80;;;3.20;;
5042;SDS011;2540;50.928;6.856;2023-07-02T00:02:29;12.30;;;3.10;;
5042;SDS011;2540;50.928;6.856;2023-07-02T00:04:55;9.20;;;3.53;;
5042;SDS011;2540;50.928;6.856;2023-07-02T00:07:20;6.50;;;3.33;;
5042;SDS011;2540;50.928;6.856;2023-07-02T00:09:45;7.60;;;3.73;;
5042;SDS011;2540;50.928;6.856;2023-07-02T00:12:11;7.80;;;3.80;;
5042;SDS011;2540;50.928;6.856;2023-07-02T00:14:36;9.10;;;3.90;;
5042;SDS011;2540;50.928;6.856;2023-07-02T00:17:02;12.60;;;3.33;;
5042;SDS011;2540;50.928;6.856;2023-07-02T00:19:28;6.53;;;3.23;;
5042;SDS011;2540;50.928;6.856;2023-07-02T00:21:54;15.17;;;3.40;;
5042;SDS011;2540;50.928;6.856;2023-07-02T00:24:20;7.67;;;3.83;;
5042;SDS011;2540;50.928;6.856;2023-07-02T00:26:45;12.03;;;3.50;;
5042;SDS011;2540;50.928;6.856;2023-07-02T00:29:11;9.13;;;3.10;;
5042;SDS011;2540;50.928;6.856;2023-07-02T00:31:36;6.20;;;3.50;;
5042;SDS011;2540;50.928;6.856;2023-07-02T00:34:01;8.57;;;3.10;;
5042;SDS011;2540;50.928;6.856;2023-07-02T00:36:28;8.33;;;3.47;;
5042;SDS011;2540;50.928;6.856;2023-07-02T00:38:53;9.90;;;3.10;;
5042;SDS011;2540;50.928;6.856;2023-07-02T00:41:19;5.70;;;3.20;;
5042;SDS011;2540;50.928;6.856;2023-07-02T00:43:44;9.50;;;4.10;;
5042;SDS011;2540;50.928;6.856;2023-07-02T00:46:14;6.10;;;3.80;;
5042;SDS011;2540;50.928;6.856;2023-07-02T00:48:45;5.93;;;2.60;;
5042;SDS011;2540;50.928;6.856;2023-07-02T00:51:12;14.03;;;4.00;;
5042;SDS011;2540;50.928;6.856;2023-07-02T00:53:39;9.70;;;4.50;;
5042;SDS011;2540;50.928;6.856;2023-07-02T00:56:05;8.47;;;3.87;;
5042;SDS011;2540;50.928;6.856;2023-07-02T00:58:30;16.20;;;3.83;;
5042;SDS011;2540;50.928;6.856;2023-07-02T01:00:56;5.60;;;3.50;;
5042;SDS011;2540;50.928;6.856;2023-07-02T01:03:21;14.33;;;4.47;;
5042;SDS011;2540;50.928;6.856;2023-07-02T01:05:46;10.70;;;3.90;;
5042;SDS011;2540;50.928;6.856;2023-07-02T01:08:12;8.87;;;4.17;;
5042;SDS011;2540;50.928;6.856;2023-07-02T01:10:37;8.90;;;4.53;;
5042;SDS011;2540;50.928;6.856;2023-07-02T01:13:05;8.20;;;4.10;;
5042;SDS011;2540;50.928;6.856;2023-07-02T01:15:33;8.67;;;4.40;;
5042;SDS011;2540;50.928;6.856;2023-07-02T01:17:59;6.23;;;4.33;;
5042;SDS011;2540;50.928;6.856;2023-07-02T01:20:24;17.33;;;5.27;;
5042;SDS011;2540;50.928;6.856;2023-07-02T01:22:52;12.30;;;6.00;;
5042;SDS011;2540;50.928;6.856;2023-07-02T01:25:17;17.57;;;5.23;;
5042;SDS011;2540;50.928;6.856;2023-07-02T01:27:43;10.30;;;5.17;;
5042;SDS011;2540;50.928;6.856;2023-07-02T01:30:09;13.70;;;4.90;;
5042;SDS011;2540;50.928;6.856;2023-07-02T01:32:35;14.50;;;5.90;;
5042;SDS011;2540;50.928;6.856;2023-07-02T01:35:00;14.20;;;6.07;;
5042;SDS011;2540;50.928;6.856;2023-07-02T01:37:25;11.37;;;5.30;;
5042;SDS011;2540;50.928;6.856;2023-07-02T01:39:51;9.27;;;5.27;;
5042;SDS011;2540;50.928;6.856;2023-07-02T01:42:17;18.63;;;6.33;;
5042;SDS011;2540;50.928;6.856;2023-07-02T01:44:44;12.53;;;6.20;;
5042;SDS011;2540;50.928;6.856;2023-07-02T01:47:10;15.10;;;6.80;;
5042;SDS011;2540;50.928;6.856;2023-07-02T01:49:35;13.03;;;6.33;;
5042;SDS011;2540;50.928;6.856;2023-07-02T01:52:03;22.40;;;7.40;;
5042;SDS011;2540;50.928;6.856;2023-07-02T01:54:30;20.33;;;7.30;;
5042;SDS011;2540;50.928;6.856;2023-07-02T01:56:57;21.80;;;8.17;;
5042;SDS011;2540;50.928;6.856;2023-07-02T01:59:22;17.53;;;7.10;;
5042;SDS011;2540;50.928;6.856;2023-07-02T02:01:48;16.30;;;7.90;;
5042;SDS011;2540;50.928;6.856;2023-07-02T02:04:13;18.27;;;7.33;;
5042;SDS011;2540;50.928;6.856;2023-07-02T02:06:38;20.07;;;7.90;;
5042;SDS011;2540;50.928;6.856;2023-07-02T02:09:04;17.40;;;7.40;;
5042;SDS011;2540;50.928;6.856;2023-07-02T02:11:30;23.47;;;8.83;;
5042;SDS011;2540;50.928;6.856;2023-07-02T02:13:56;17.77;;;7.73;;
5042;SDS011;2540;50.928;6.856;2023-07-02T02:16:22;23.67;;;7.10;;
5042;SDS011;2540;50.928;6.856;2023-07-02T02:18:48;21.83;;;8.43;;
5042;SDS011;2540;50.928;6.856;2023-07-02T02:21:16;24.50;;;9.07;;
5042;SDS011;2540;50.928;6.856;2023-07-02T02:23:42;15.97;;;7.67;;
5042;SDS011;2540;50.928;6.856;2023-07-02T02:26:07;19.80;;;8.10;;
5042;SDS011;2540;50.928;6.856;2023-07-02T02:28:32;23.77;;;8.30;;
5042;SDS011;2540;50.928;6.856;2023-07-02T02:30:58;33.80;;;9.33;;
5042;SDS011;2540;50.928;6.856;2023-07-02T02:33:23;18.20;;;8.60;;
5042;SDS011;2540;50.928;6.856;2023-07-02T02:35:48;18.77;;;7.90;;
5042;SDS011;2540;50.928;6.856;2023-07-02T02:38:14;20.93;;;9.50;;
5042;SDS011;2540;50.928;6.856;2023-07-02T02:40:39;20.30;;;8.60;;
5042;SDS011;2540;50.928;6.856;2023-07-02T02:43:05;25.03;;;8.80;;
5042;SDS011;2540;50.928;6.856;2023-07-02T02:45:30;20.77;;;9.20;;
5042;SDS011;2540;50.928;6.856;2023-07-02T02:47:56;18.77;;;9.10;;
5042;SDS011;2540;50.928;6.856;2023-07-02T02:50:21;22.93;;;10.03;;
5042;SDS011;2540;50.928;6.856;2023-07-02T02:52:46;19.57;;;8.90;;
5042;SDS011;2540;50.928;6.856;2023-07-02T02:55:12;20.67;;;8.50;;
5042;SDS011;2540;50.928;6.856;2023-07-02T02:57:37;22.37;;;9.77;;
5042;SDS011;2540;50.928;6.856;2023-07-02T03:00:02;22.40;;;9.83;;
5042;SDS011;2540;50.928;6.856;2023-07-02T03:02:29;22.73;;;10.13;;
5042;SDS011;2540;50.928;6.856;2023-07-02T03:04:55;27.80;;;9.60;;
5042;SDS011;2540;50.928;6.856;2023-07-02T03:07:21;23.30;;;9.47;;
5042;SDS011;2540;50.928;6.856;2023-07-02T03:09:47;19.20;;;9.50;;
5042;SDS011;2540;50.928;6.856;2023-07-02T03:12:12;23.53;;;9.30;;
5042;SDS011;2540;50.928;6.856;2023-07-02T03:14:38;32.00;;;10.00;;
5042;SDS011;2540;50.928;6.856;2023-07-02T03:17:03;24.73;;;10.90;;
5042;SDS011;2540;50.928;6.856;2023-07-02T03:19:29;22.67;;;9.70;;
5042;SDS011;2540;50.928;6.856;2023-07-02T03:21:54;22.60;;;10.23;;
5042;SDS011;2540;50.928;6.856;2023-07-02T03:24:19;34.13;;;10.90;;
5042;SDS011;2540;50.928;6.856;2023-07-02T03:26:45;27.67;;;9.80;;
5042;SDS011;2540;50.928;6.856;2023-07-02T03:29:10;30.40;;;11.23;;
5042;SDS011;2540;50.928;6.856;2023-07-02T03:31:36;24.73;;;10.40;;
5042;SDS011;2540;50.928;6.856;2023-07-02T03:34:06;28.27;;;12.07;;
5042;SDS011;2540;50.928;6.856;2023-07-02T03:36:32;26.97;;;10.77;;
5042;SDS011;2540;50.928;6.856;2023-07-02T03:38:58;30.60;;;11.20;;
5042;SDS011;2540;50.928;6.856;2023-07-02T03:41:23;24.20;;;10.93;;
5042;SDS011;2540;50.928;6.856;2023-07-02T03:43:49;28.97;;;11.17;;
5042;SDS011;2540;50.928;6.856;2023-07-02T03:46:14;34.53;;;13.00;;
5042;SDS011;2540;50.928;6.856;2023-07-02T03:48:39;29.60;;;11.37;;
5042;SDS011;2540;50.928;6.856;2023-07-02T03:51:05;31.40;;;12.33;;
5042;SDS011;2540;50.928;6.856;2023-07-02T03:53:31;26.60;;;12.07;;
5042;SDS011;2540;50.928;6.856;2023-07-02T03:55:56;36.10;;;13.77;;
5042;SDS011;2540;50.928;6.856;2023-07-02T03:58:21;25.33;;;11.77;;
5042;SDS011;2540;50.928;6.856;2023-07-02T04:00:47;26.60;;;12.00;;
5042;SDS011;2540;50.928;6.856;2023-07-02T04:03:14;30.80;;;11.00;;
5042;SDS011;2540;50.928;6.856;2023-07-02T04:05:40;30.53;;;12.53;;
5042;SDS011;2540;50.928;6.856;2023-07-02T04:08:05;35.13;;;13.47;;
5042;SDS011;2540;50.928;6.856;2023-07-02T04:10:30;30.70;;;13.50;;
5042;SDS011;2540;50.928;6.856;2023-07-02T04:12:56;45.50;;;12.70;;
5042;SDS011;2540;50.928;6.856;2023-07-02T04:15:21;27.77;;;11.73;;
5042;SDS011;2540;50.928;6.856;2023-07-02T04:17:46;26.27;;;12.03;;
5042;SDS011;2540;50.928;6.856;2023-07-02T04:20:12;26.43;;;12.23;;
5042;SDS011;2540;50.928;6.856;2023-07-02T04:22:37;31.00;;;13.67;;
5042;SDS011;2540;50.928;6.856;2023-07-02T04:25:03;28.93;;;12.57;;
5042;SDS011;2540;50.928;6.856;2023-07-02T04:27:29;27.00;;;12.63;;
5042;SDS011;2540;50.928;6.856;2023-07-02T04:29:54;26.27;;;12.73;;
5042;SDS011;2540;50.928;6.856;2023-07-02T04:32:20;26.93;;;13.00;;
5042;SDS011;2540;50.928;6.856;2023-07-02T04:34:46;41.57;;;14.20;;
5042;SDS011;2540;50.928;6.856;2023-07-02T04:37:11;28.00;;;12.80;;
5042;SDS011;2540;50.928;6.856;2023-07-02T04:39:36;34.40;;;14.50;;
5042;SDS011;2540;50.928;6.856;2023-07-02T04:42:02;33.10;;;12.83;;
5042;SDS011;2540;50.928;6.856;2023-07-02T04:44:27;32.60;;;14.27;;
5042;SDS011;2540;50.928;6.856;2023-07-02T04:46:58;34.13;;;14.70;;
5042;SDS011;2540;50.928;6.856;2023-07-02T04:49:25;38.63;;;14.90;;
5042;SDS011;2540;50.928;6.856;2023-07-02T04:51:50;38.37;;;15.27;;
5042;SDS011;2540;50.928;6.856;2023-07-02T04:54:15;35.90;;;15.27;;
5042;SDS011;2540;50.928;6.856;2023-07-02T04:56:41;33.43;;;13.73;;
5042;SDS011;2540;50.928;6.856;2023-07-02T04:59:06;37.27;;;14.20;;
5042;SDS011;2540;50.928;6.856;2023-07-02T05:01:31;39.63;;;15.40;;
5042;SDS011;2540;50.928;6.856;2023-07-02T05:03:57;42.80;;;15.30;;
5042;SDS011;2540;50.928;6.856;2023-07-02T05:06:22;34.57;;;15.17;;
5042;SDS011;2540;50.928;6.856;2023-07-02T05:08:47;40.30;;;17.30;;
5042;SDS011;2540;50.928;6.856;2023-07-02T05:11:13;39.80;;;15.40;;
5042;SDS011;2540;50.928;6.856;2023-07-02T05:13:38;33.80;;;14.27;;
5042;SDS011;2540;50.928;6.856;2023-07-02T05:16:03;35.13;;;14.87;;
5042;SDS011;2540;50.928;6.856;2023-07-02T05:18:29;38.37;;;15.93;;
5042;SDS011;2540;50.928;6.856;2023-07-02T05:20:54;37.17;;;17.30;;
5042;SDS011;2540;50.928;6.856;2023-07-02T05:23:19;35.67;;;16.03;;
5042;SDS011;2540;50.928;6.856;2023-07-02T05:25:44;47.13;;;15.30;;
5042;SDS011;2540;50.928;6.856;2023-07-02T05:28:11;34.80;;;15.13;;
5042;SDS011;2540;50.928;6.856;2023-07-02T05:30:36;38.77;;;16.50;;
5042;SDS011;2540;50.928;6.856;2023-07-02T05:33:01;38.43;;;15.60;;
5042;SDS011;2540;50.928;6.856;2023-07-02T05:35:26;37.90;;;15.43;;
5042;SDS011;2540;50.928;6.856;2023-07-02T05:37:52;34.50;;;16.67;;
5042;SDS011;2540;50.928;6.856;2023-07-02T05:40:17;41.87;;;16.43;;
5042;SDS011;2540;50.928;6.856;2023-07-02T05:42:42;31.27;;;14.87;;
5042;SDS011;2540;50.928;6.856;2023-07-02T05:45:08;46.60;;;15.77;;
5042;SDS011;2540;50.928;6.856;2023-07-02T05:47:33;40.30;;;16.43;;
5042;SDS011;2540;50.928;6.856;2023-07-02T05:49:59;43.00;;;16.30;;
5042;SDS011;2540;50.928;6.856;2023-07-02T05:52:24;39.27;;;14.87;;
5042;SDS011;2540;50.928;6.856;2023-07-02T05:54:49;59.43;;;16.67;;
5042;SDS011;2540;50.928;6.856;2023-07-02T05:57:15;41.20;;;16.60;;
5042;SDS011;2540;50.928;6.856;2023-07-02T05:59:40;43.93;;;16.43;;
5042;SDS011;2540;50.928;6.856;2023-07-02T06:02:05;42.73;;;19.23;;
5042;SDS011;2540;50.928;6.856;2023-07-02T06:04:31;38.13;;;16.80;;
5042;SDS011;2540;50.928;6.856;2023-07-02T06:06:56;39.67;;;17.90;;
5042;SDS011;2540;50.928;6.856;2023-07-02T06:09:22;39.23;;;15.47;;
5042;SDS011;2540;50.928;6.856;2023-07-02T06:11:47;38.33;;;17.40;;
5042;SDS011;2540;50.928;6.856;2023-07-02T06:14:13;45.53;;;15.50;;
5042;SDS011;2540;50.928;6.856;2023-07-02T06:16:38;35.33;;;14.90;;
5042;SDS011;2540;50.928;6.856;2023-07-02T06:19:04;37.43;;;15.30;;
5042;SDS011;2540;50.928;6.856;2023-07-02T06:21:29;41.57;;;15.37;;
5042;SDS011;2540;50.928;6.856;2023-07-02T06:23:55;42.60;;;16.90;;
5042;SDS011;2540;50.928;6.856;2023-07-02T06:26:22;44.53;;;15.87;;
5042;SDS011;2540;50.928;6.856;2023-07-02T06:28:48;52.33;;;16.67;;
5042;SDS011;2540;50.928;6.856;2023-07-02T06:31:13;36.30;;;14.40;;
5042;SDS011;2540;50.928;6.856;2023-07-02T06:33:39;31.03;;;14.00;;
5042;SDS011;2540;50.928;6.856;2023-07-02T06:36:05;39.13;;;15.30;;
5042;SDS011;2540;50.928;6.856;2023-07-02T06:38:30;45.67;;;17.67;;
5042;SDS011;2540;50.928;6.856;2023-07-02T06:40:56;36.37;;;14.77;;
5042;SDS011;2540;50.928;6.856;2023-07-02T06:43:21;39.27;;;15.80;;
5042;SDS011;2540;50.928;6.856;2023-07-02T06:45:46;38.70;;;16.67;;
5042;SDS011;2540;50.928;6.856;2023-07-02T06:48:12;36.63;;;14.43;;
5042;SDS011;2540;50.928;6.856;2023-07-02T06:50:42;43.97;;;15.90;;
5042;SDS011;2540;50.928;6.856;2023-07-02T06:53:08;44.27;;;16.03;;
5042;SDS011;2540;50.928;6.856;2023-07-02T06:55:33;37.90;;;16.43;;
5042;SDS011;2540;50.928;6.856;2023-07-02T06:57:59;38.60;;;15.83;;
5042;SDS011;2540;50.928;6.856;2023-07-02T07:00:24;39.30;;;16.43;;
5042;SDS011;2540;50.928;6.856;2023-07-02T07:02:49;36.30;;;14.90;;
5042;SDS011;2540;50.928;6.856;2023-07-02T07:05:14;43.90;;;17.87;;
5042;SDS011;2540;50.928;6.856;2023-07-02T07:07:40;42.30;;;16.03;;
5042;SDS011;2540;50.928;6.856;2023-07-02T07:10:06;40.83;;;17.60;;
5042;SDS011;2540;50.928;6.856;2023-07-02T07:12:31;49.67;;;16.77;;
5042;SDS011;2540;50.928;6.856;2023-07-02T07:14:57;40.70;;;16.77;;
5042;SDS011;2540;50.928;6.856;2023-07-02T07:17:22;43.20;;;17.13;;
5042;SDS011;2540;50.928;6.856;2023-07-02T07:19:48;40.20;;;16.30;;
5042;SDS011;2540;50.928;6.856;2023-07-02T07:22:13;45.63;;;15.47;;
5042;SDS011;2540;50.928;6.856;2023-07-02T07:24:39;40.10;;;14.93;;
5042;SDS011;2540;50.928;6.856;2023-07-02T07:27:06;33.47;;;14.03;;
5042;SDS011;2540;50.928;6.856;2023-07-02T07:29:31;38.40;;;15.30;;
5042;SDS011;2540;50.928;6.856;2023-07-02T07:31:57;55.57;;;14.73;;
5042;SDS011;2540;50.928;6.856;2023-07-02T07:34:22;51.30;;;15.47;;
5042;SDS011;2540;50.928;6.856;2023-07-02T07:36:47;37.37;;;13.60;;
5042;SDS011;2540;50.928;6.856;2023-07-02T07:39:13;31.30;;;13.30;;
5042;SDS011;2540;50.928;6.856;2023-07-02T07:41:38;36.87;;;14.07;;
5042;SDS011;2540;50.928;6.856;2023-07-02T07:44:03;32.90;;;12.70;;
5042;SDS011;2540;50.928;6.856;2023-07-02T07:46:29;33.53;;;13.17;;
5042;SDS011;2540;50.928;6.856;2023-07-02T07:48:54;32.50;;;12.90;;
5042;SDS011;2540;50.928;6.856;2023-07-02T07:51:19;36.63;;;13.13;;
5042;SDS011;2540;50.928;6.856;2023-07-02T07:53:44;34.50;;;14.10;;
5042;SDS011;2540;50.928;6.856;2023-07-02T07:56:10;31.67;;;12.97;;
5042;SDS011;2540;50.928;6.856;2023-07-02T07:58:35;35.37;;;12.80;;
5042;SDS011;2540;50.928;6.856;2023-07-02T08:01:00;32.73;;;12.80;;
5042;SDS011;2540;50.928;6.856;2023-07-02T08:03:26;30.23;;;12.10;;
5042;SDS011;2540;50.928;6.856;2023-07-02T08:05:51;46.73;;;15.23;;
5042;SDS011;2540;50.928;6.856;2023-07-02T08:08:16;35.73;;;12.57;;
5042;SDS011;2540;50.928;6.856;2023-07-02T08:10:42;32.20;;;11.30;;
5042;SDS011;2540;50.928;6.856;2023-07-02T08:13:07;36.20;;;11.90;;
5042;SDS011;2540;50.928;6.856;2023-07-02T08:15:33;33.13;;;12.63;;
5042;SDS011;2540;50.928;6.856;2023-07-02T08:17:58;35.33;;;12.40;;
5042;SDS011;2540;50.928;6.856;2023-07-02T08:20:24;31.50;;;11.43;;
5042;SDS011;2540;50.928;6.856;2023-07-02T08:22:49;33.60;;;12.37;;
5042;SDS011;2540;50.928;6.856;2023-07-02T08:25:16;35.30;;;12.07;;
5042;SDS011;2540;50.928;6.856;2023-07-02T08:27:42;31.83;;;12.00;;
5042;SDS011;2540;50.928;6.856;2023-07-02T08:30:08;27.90;;;11.83;;
5042;SDS011;2540;50.928;6.856;2023-07-02T08:32:33;29.83;;;11.87;;
5042;SDS011;2540;50.928;6.856;2023-07-02T08:34:58;38.27;;;12.10;;
5042;SDS011;2540;50.928;6.856;2023-07-02T08:37:24;39.30;;;12.47;;
5042;SDS011;2540;50.928;6.856;2023-07-02T08:39:49;28.33;;;11.00;;
5042;SDS011;2540;50.928;6.856;2023-07-02T08:42:15;37.20;;;11.80;;
5042;SDS011;2540;50.928;6.856;2023-07-02T08:44:40;36.20;;;13.43;;
5042;SDS011;2540;50.928;6.856;2023-07-02T08:47:06;26.43;;;11.60;;
5042;SDS011;2540;50.928;6.856;2023-07-02T08:49:31;30.70;;;11.90;;
5042;SDS011;2540;50.928;6.856;2023-07-02T08:51:57;27.87;;;11.50;;
5042;SDS011;2540;50.928;6.856;2023-07-02T08:54:23;31.83;;;12.90;;
5042;SDS011;2540;50.928;6.856;2023-07-02T08:56:48;28.73;;;12.50;;
5042;SDS011;2540;50.928;6.856;2023-07-02T08:59:13;24.87;;;10.87;;
5042;SDS011;2540;50.928;6.856;2023-07-02T09:01:45;29.27;;;11.03;;
5042;SDS011;2540;50.928;6.856;2023-07-02T09:04:17;23.93;;;10.77;;
5042;SDS011;2540;50.928;6.856;2023-07-02T09:06:49;27.43;;;11.13;;
5042;SDS011;2540;50.928;6.856;2023-07-02T09:09:15;47.37;;;13.40;;
5042;SDS011;2540;50.928;6.856;2023-07-02T09:11:47;26.97;;;11.77;;
5042;SDS011;2540;50.928;6.856;2023-07-02T09:14:23;38.20;;;12.10;;
5042;SDS011;2540;50.928;6.856;2023-07-02T09:17:05;30.83;;;12.17;;
5042;SDS011;2540;50.928;6.856;2023-07-02T09:19:33;38.33;;;13.03;;
5042;SDS011;2540;50.928;6.856;2023-07-02T09:21:59;36.60;;;13.20;;
5042;SDS011;2540;50.928;6.856;2023-07-02T09:24:25;27.80;;;12.03;;
5042;SDS011;2540;50.928;6.856;2023-07-02T09:26:52;36.20;;;13.70;;
5042;SDS011;2540;50.928;6.856;2023-07-02T09:29:18;24.57;;;11.63;;
5042;SDS011;2540;50.928;6.856;2023-07-02T09:31:51;31.60;;;12.67;;
5042;SDS011;2540;50.928;6.856;2023-07-02T09:34:17;37.93;;;13.57;;
5042;SDS011;2540;50.928;6.856;2023-07-02T09:36:42;27.47;;;12.07;;
5042;SDS011;2540;50.928;6.856;2023-07-02T09:39:12;29.70;;;14.20;;
5042;SDS011;2540;50.928;6.856;2023-07-02T09:41:41;37.57;;;12.90;;
5042;SDS011;2540;50.928;6.856;2023-07-02T09:44:07;36.63;;;13.30;;
5042;SDS011;2540;50.928;6.856;2023-07-02T09:46:41;34.90;;;13.43;;
5042;SDS011;2540;50.928;6.856;2023-07-02T09:49:08;30.93;;;12.90;;
5042;SDS011;2540;50.928;6.856;2023-07-02T09:51:37;36.63;;;13.30;;
5042;SDS011;2540;50.928;6.856;2023-07-02T09:54:03;38.70;;;13.63;;
5042;SDS011;2540;50.928;6.856;2023-07-02T09:56:28;42.67;;;13.27;;
5042;SDS011;2540;50.928;6.856;2023-07-02T09:58:54;36.13;;;13.47;;
5042;SDS011;2540;50.928;6.856;2023-07-02T10:01:19;25.07;;;12.40;;
5042;SDS011;2540;50.928;6.856;2023-07-02T10:03:44;39.37;;;14.00;;
5042;SDS011;2540;50.928;6.856;2023-07-02T10:06:10;33.00;;;13.13;;
5042;SDS011;2540;50.928;6.856;2023-07-02T10:08:35;31.53;;;13.17;;
5042;SDS011;2540;50.928;6.856;2023-07-02T10:11:10;32.73;;;13.50;;
5042;SDS011;2540;50.928;6.856;2023-07-02T10:13:37;30.27;;;13.70;;
5042;SDS011;2540;50.928;6.856;2023-07-02T10:16:02;30.10;;;11.53;;
5042;SDS011;2540;50.928;6.856;2023-07-02T10:18:28;26.67;;;10.70;;
5042;SDS011;2540;50.928;6.856;2023-07-02T10:20:54;30.07;;;12.17;;
5042;SDS011;2540;50.928;6.856;2023-07-02T10:23:19;26.90;;;10.17;;
5042;SDS011;2540;50.928;6.856;2023-07-02T10:25:44;27.87;;;10.80;;
5042;SDS011;2540;50.928;6.856;2023-07-02T10:28:19;29.43;;;11.47;;
5042;SDS011;2540;50.928;6.856;2023-07-02T10:30:47;23.50;;;11.03;;
5042;SDS011;2540;50.928;6.856;2023-07-02T10:33:16;33.13;;;12.20;;
5042;SDS011;2540;50.928;6.856;2023-07-02T10:35:43;22.20;;;11.73;;
5042;SDS011;2540;50.928;6.856;2023-07-02T10:38:18;29.00;;;12.13;;
5042;SDS011;2540;50.928;6.856;2023-07-02T10:40:53;25.37;;;11.40;;
5042;SDS011;2540;50.928;6.856;2023-07-02T10:43:26;31.63;;;12.13;;
5042;SDS011;2540;50.928;6.856;2023-07-02T10:45:53;33.27;;;12.50;;
5042;SDS011;2540;50.928;6.856;2023-07-02T10:48:19;25.70;;;11.90;;
5042;SDS011;2540;50.928;6.856;2023-07-02T10:50:44;26.70;;;10.70;;
5042;SDS011;2540;50.928;6.856;2023-07-02T10:53:16;20.83;;;10.30;;
5042;SDS011;2540;50.928;6.856;2023-07-02T10:55:42;29.07;;;11.67;;
5042;SDS011;2540;50.928;6.856;2023-07-02T10:58:08;30.93;;;11.30;;
5042;SDS011;2540;50.928;6.856;2023-07-02T11:00:47;24.37;;;10.50;;
5042;SDS011;2540;50.928;6.856;2023-07-02T11:03:20;28.40;;;11.60;;
5042;SDS011;2540;50.928;6.856;2023-07-02T11:05:50;27.37;;;12.03;;
5042;SDS011;2540;50.928;6.856;2023-07-02T11:08:16;29.37;;;11.57;;
5042;SDS011;2540;50.928;6.856;2023-07-02T11:10:42;27.80;;;10.47;;
5042;SDS011;2540;50.928;6.856;2023-07-02T11:13:11;32.43;;;12.40;;
5042;SDS011;2540;50.928;6.856;2023-07-02T11:15:40;26.60;;;11.77;;
5042;SDS011;2540;50.928;6.856;2023-07-02T11:18:12;24.70;;;10.07;;
5042;SDS011;2540;50.928;6.856;2023-07-02T11:20:38;27.77;;;11.60;;
5042;SDS011;2540;50.928;6.856;2023-07-02T11:23:04;25.50;;;11.60;;
5042;SDS011;2540;50.928;6.856;2023-07-02T11:25:31;33.10;;;12.50;;
5042;SDS011;2540;50.928;6.856;2023-07-02T11:28:05;23.90;;;11.90;;
5042;SDS011;2540;50.928;6.856;2023-07-02T11:30:30;27.80;;;11.70;;
5042;SDS011;2540;50.928;6.856;2023-07-02T11:32:56;32.83;;;11.70;;
5042;SDS011;2540;50.928;6.856;2023-07-02T11:35:21;29.60;;;11.07;;
5042;SDS011;2540;50.928;6.856;2023-07-02T11:37:48;22.80;;;10.33;;
5042;SDS011;2540;50.928;6.856;2023-07-02T11:40:14;35.80;;;11.43;;
5042;SDS011;2540;50.928;6.856;2023-07-02T11:42:40;26.73;;;10.30;;
5042;SDS011;2540;50.928;6.856;2023-07-02T11:45:05;28.40;;;10.97;;
5042;SDS011;2540;50.928;6.856;2023-07-02T11:47:31;31.13;;;11.10;;
5042;SDS011;2540;50.928;6.856;2023-07-02T11:49:56;26.50;;;11.60;;
5042;SDS011;2540;50.928;6.856;2023-07-02T11:52:24;30.80;;;10.60;;
5042;SDS011;2540;50.928;6.856;2023-07-02T11:54:49;25.33;;;9.70;;
5042;SDS011;2540;50.928;6.856;2023-07-02T11:57:14;23.77;;;10.40;;
5042;SDS011;2540;50.928;6.856;2023-07-02T11:59:40;24.80;;;10.40;;
5042;SDS011;2540;50.928;6.856;2023-07-02T12:02:06;26.40;;;10.40;;
5042;SDS011;2540;50.928;6.856;2023-07-02T12:04:31;21.00;;;9.90;;
5042;SDS011;2540;50.928;6.856;2023-07-02T12:06:56;27.50;;;10.50;;
5042;SDS011;2540;50.928;6.856;2023-07-02T12:09:22;20.60;;;10.10;;
5042;SDS011;2540;50.928;6.856;2023-07-02T12:11:47;19.93;;;8.50;;
5042;SDS011;2540;50.928;6.856;2023-07-02T12:14:13;19.70;;;7.90;;
5042;SDS011;2540;50.928;6.856;2023-07-02T12:16:38;21.57;;;7.60;;
5042;SDS011;2540;50.928;6.856;2023-07-02T12:19:03;21.67;;;7.03;;
5042;SDS011;2540;50.928;6.856;2023-07-02T12:21:29;17.23;;;7.47;;
5042;SDS011;2540;50.928;6.856;2023-07-02T12:23:54;21.50;;;7.70;;
5042;SDS011;2540;50.928;6.856;2023-07-02T12:26:19;19.40;;;8.13;;
5042;SDS011;2540;50.928;6.856;2023-07-02T12:28:45;25.83;;;7.87;;
5042;SDS011;2540;50.928;6.856;2023-07-02T12:31:10;20.30;;;6.73;;
5042;SDS011;2540;50.928;6.856;2023-07-02T12:33:37;15.17;;;7.47;;
5042;SDS011;2540;50.928;6.856;2023-07-02T12:36:03;21.00;;;8.00;;
5042;SDS011;2540;50.928;6.856;2023-07-02T12:38:28;24.27;;;7.57;;
5042;SDS011;2540;50.928;6.856;2023-07-02T12:40:54;22.90;;;7.83;;
5042;SDS011;2540;50.928;6.856;2023-07-02T12:43:19;22.33;;;8.20;;
5042;SDS011;2540;50.928;6.856;2023-07-02T12:45:45;17.93;;;8.27;;
5042;SDS011;2540;50.928;6.856;2023-07-02T12:48:10;21.03;;;8.70;;
5042;SDS011;2540;50.928;6.856;2023-07-02T12:50:37;20.73;;;8.40;;
5042;SDS011;2540;50.928;6.856;2023-07-02T12:53:02;20.83;;;9.17;;
5042;SDS011;2540;50.928;6.856;2023-07-02T12:55:28;25.67;;;8.60;;
5042;SDS011;2540;50.928;6.856;2023-07-02T12:57:53;18.43;;;8.97;;
5042;SDS011;2540;50.928;6.856;2023-07-02T13:00:18;21.23;;;8.70;;
5042;SDS011;2540;50.928;6.856;2023-07-02T13:02:44;21.67;;;9.03;;
5042;SDS011;2540;50.928;6.856;2023-07-02T13:05:11;26.23;;;9.47;;
5042;SDS011;2540;50.928;6.856;2023-07-02T13:07:37;22.10;;;9.37;;
5042;SDS011;2540;50.928;6.856;2023-07-02T13:10:02;27.90;;;9.53;;
5042;SDS011;2540;50.928;6.856;2023-07-02T13:12:27;24.67;;;9.53;;
5042;SDS011;2540;50.928;6.856;2023-07-02T13:14:53;21.37;;;9.10;;
5042;SDS011;2540;50.928;6.856;2023-07-02T13:17:18;25.00;;;9.10;;
5042;SDS011;2540;50.928;6.856;2023-07-02T13:19:43;29.60;;;10.37;;
5042;SDS011;2540;50.928;6.856;2023-07-02T13:22:09;21.80;;;9.03;;
5042;SDS011;2540;50.928;6.856;2023-07-02T13:24:35;29.10;;;9.17;;
5042;SDS011;2540;50.928;6.856;2023-07-02T13:27:02;22.23;;;10.00;;
5042;SDS011;2540;50.928;6.856;2023-07-02T13:29:29;26.30;;;8.90;;
5042;SDS011;2540;50.928;6.856;2023-07-02T13:31:54;26.80;;;10.33;;
5042;SDS011;2540;50.928;6.856;2023-07-02T13:34:20;20.23;;;8.83;;
5042;SDS011;2540;50.928;6.856;2023-07-02T13:36:45;29.00;;;10.63;;
5042;SDS011;2540;50.928;6.856;2023-07-02T13:39:10;24.27;;;9.50;;
5042;SDS011;2540;50.928;6.856;2023-07-02T13:41:36;27.07;;;9.87;;
5042;SDS011;2540;50.928;6.856;2023-07-02T13:44:01;31.07;;;10.80;;
5042;SDS011;2540;50.928;6.856;2023-07-02T13:46:26;33.77;;;10.10;;
5042;SDS011;2540;50.928;6.856;2023-07-02T13:48:52;22.77;;;9.27;;
5042;SDS011;2540;50.928;6.856;2023-07-02T13:51:17;25.43;;;9.10;;
5042;SDS011;2540;50.928;6.856;2023-07-02T13:53:42;28.70;;;9.20;;
5042;SDS011;2540;50.928;6.856;2023-07-02T13:56:07;30.73;;;10.20;;
5042;SDS011;2540;50.928;6.856;2023-07-02T13:58:46;20.00;;;9.00;;
5042;SDS011;2540;50.928;6.856;2023-07-02T14:01:12;22.07;;;8.57;;
5042;SDS011;2540;50.928;6.856;2023-07-02T14:03:38;20.23;;;10.00;;
5042;SDS011;2540;50.928;6.856;2023-07-02T14:06:03;21.43;;;8.90;;
5042;SDS011;2540;50.928;6.856;2023-07-02T14:08:28;19.87;;;9.77;;
5042;SDS011;2540;50.928;6.856;2023-07-02T14:10:53;21.27;;;9.17;;
5042;SDS011;2540;50.928;6.856;2023-07-02T14:13:19;21.80;;;9.07;;
5042;SDS011;2540;50.928;6.856;2023-07-02T14:15:44;21.03;;;10.00;;
5042;SDS011;2540;50.928;6.856;2023-07-02T14:18:09;22.63;;;9.93;;
5042;SDS011;2540;50.928;6.856;2023-07-02T14:20:35;23.90;;;9.40;;
5042;SDS011;2540;50.928;6.856;2023-07-02T14:23:00;20.67;;;9.50;;
5042;SDS011;2540;50.928;6.856;2023-07-02T14:25:25;23.10;;;9.60;;
5042;SDS011;2540;50.928;6.856;2023-07-02T14:27:50;25.33;;;9.30;;
5042;SDS011;2540;50.928;6.856;2023-07-02T14:30:16;29.00;;;9.70;;
5042;SDS011;2540;50.928;6.856;2023-07-02T14:32:41;23.40;;;9.87;;
5042;SDS011;2540;50.928;6.856;2023-07-02T14:35:09;25.70;;;10.00;;
5042;SDS011;2540;50.928;6.856;2023-07-02T14:37:34;27.50;;;9.77;;
5042;SDS011;2540;50.928;6.856;2023-07-02T14:39:59;29.97;;;11.10;;
5042;SDS011;2540;50.928;6.856;2023-07-02T14:42:25;23.67;;;10.20;;
5042;SDS011;2540;50.928;6.856;2023-07-02T14:44:50;21.90;;;9.17;;